sensor_id;sensor_type;location;lat;lon;timestamp;temperature;humidity
30001;DHT22;16845;48.670;9.000;2023-04-23T00:00:21;13.20;99.90
30001;DHT22;16845;48.670;9.000;2023-04-23T00:02:50;13.20;99.90
30001;DHT22;16845;48.670;9.000;2023-04-23T00:05:18;13.10;99.90
30001;DHT22;16845;48.670;9.000;2023-04-23T00:07:46;13.10;99.90
30001;DHT22;16845;48.670;9.000;2023-04-23T00:10:14;13.10;99.90
30001;DHT22;16845;48.670;9.000;2023-04-23T00:12:42;13.20;99.90
30001;DHT22;16845;48.670;9.000;2023-04-23T00:15:11;13.10;99.90
30001;DHT22;16845;48.670;9.000;2023-04-23T00:17:38;13.10;99.90
30001;DHT22;16845;48.670;9.000;2023-04-23T00:20:06;13.10;99.90
30001;DHT22;16845;48.670;9.000;2023-04-23T00:22:33;13.10;99.90
30001;DHT22;16845;48.670;9.000;2023-04-23T00:25:00;13.10;99.90
30001;DHT22;16845;48.670;9.000;2023-04-23T00:27:28;13.00;99.90
30001;DHT22;16845;48.670;9.000;2023-04-23T00:29:54;13.00;99.90
30001;DHT22;16845;48.670;9.000;2023-04-23T00:32:21;13.00;99.90
30001;DHT22;16845;48.670;9.000;2023-04-23T00:34:48;13.10;99.90
30001;DHT22;16845;48.670;9.000;2023-04-23T00:37:15;13.10;99.90
30001;DHT22;16845;48.670;9.000;2023-04-23T00:39:41;13.00;99.90
30001;DHT22;16845;48.670;9.000;2023-04-23T00:42:08;13.10;99.90
30001;DHT22;16845;48.670;9.000;2023-04-23T00:44:37;13.10;99.90
30001;DHT22;16845;48.670;9.000;2023-04-23T00:47:04;13.10;99.90
30001;DHT22;16845;48.670;9.000;2023-04-23T00:49:32;13.00;99.90
30001;DHT22;16845;48.670;9.000;2023-04-23T00:51:59;13.10;99.90
30001;DHT22;16845;48.670;9.000;2023-04-23T00:54:26;13.00;99.90
30001;DHT22;16845;48.670;9.000;2023-04-23T00:56:52;12.90;99.90
30001;DHT22;16845;48.670;9.000;2023-04-23T00:59:20;13.00;99.90
30001;DHT22;16845;48.670;9.000;2023-04-23T01:01:48;13.00;99.90
30001;DHT22;16845;48.670;9.000;2023-04-23T01:04:16;13.00;99.90
30001;DHT22;16845;48.670;9.000;2023-04-23T01:06:44;13.00;99.90
30001;DHT22;16845;48.670;9.000;2023-04-23T01:09:11;13.00;99.90
30001;DHT22;16845;48.670;9.000;2023-04-23T01:11:40;12.90;99.90
30001;DHT22;16845;48.670;9.000;2023-04-23T01:14:08;12.90;99.90
30001;DHT22;16845;48.670;9.000;2023-04-23T01:16:35;12.80;99.90
30001;DHT22;16845;48.670;9.000;2023-04-23T01:19:03;12.80;99.90
30001;DHT22;16845;48.670;9.000;2023-04-23T01:21:30;12.80;99.90
30001;DHT22;16845;48.670;9.000;2023-04-23T01:23:59;12.80;99.90
30001;DHT22;16845;48.670;9.000;2023-04-23T01:26:25;12.70;99.90
30001;DHT22;16845;48.670;9.000;2023-04-23T01:28:53;12.70;99.90
30001;DHT22;16845;48.670;9.000;2023-04-23T01:31:20;12.70;99.90
30001;DHT22;16845;48.670;9.000;2023-04-23T01:33:48;12.80;99.90
30001;DHT22;16845;48.670;9.000;2023-04-23T01:36:15;12.80;99.90
30001;DHT22;16845;48.670;9.000;2023-04-23T01:38:43;12.70;99.90
30001;DHT22;16845;48.670;9.000;2023-04-23T01:41:11;12.70;99.90
30001;DHT22;16845;48.670;9.000;2023-04-23T01:43:39;12.70;99.90
30001;DHT22;16845;48.670;9.000;2023-04-23T01:46:07;12.60;99.90
30001;DHT22;16845;48.670;9.000;2023-04-23T01:48:34;12.60;99.90
30001;DHT22;16845;48.670;9.000;2023-04-23T01:51:01;12.60;99.90
30001;DHT22;16845;48.670;9.000;2023-04-23T01:53:28;12.60;99.90
30001;DHT22;16845;48.670;9.000;2023-04-23T01:55:55;12.60;99.90
30001;DHT22;16845;48.670;9.000;2023-04-23T01:58:24;12.60;99.90
30001;DHT22;16845;48.670;9.000;2023-04-23T02:00:50;12.60;99.90
30001;DHT22;16845;48.670;9.000;2023-04-23T02:03:17;12.60;99.90
30001;DHT22;16845;48.670;9.000;2023-04-23T02:05:45;12.60;99.90
30001;DHT22;16845;48.670;9.000;2023-04-23T02:08:12;12.60;99.90
30001;DHT22;16845;48.670;9.000;2023-04-23T02:10:39;12.60;99.90
30001;DHT22;16845;48.670;9.000;2023-04-23T02:13:06;12.60;99.90
30001;DHT22;16845;48.670;9.000;2023-04-23T02:15:34;12.50;99.90
30001;DHT22;16845;48.670;9.000;2023-04-23T02:18:01;12.40;99.90
30001;DHT22;16845;48.670;9.000;2023-04-23T02:20:28;12.30;99.90
30001;DHT22;16845;48.670;9.000;2023-04-23T02:22:54;12.30;99.90
30001;DHT22;16845;48.670;9.000;2023-04-23T02:25:22;12.20;99.90
30001;DHT22;16845;48.670;9.000;2023-04-23T02:27:48;12.20;99.90
30001;DHT22;16845;48.670;9.000;2023-04-23T02:30:15;12.10;99.90
30001;DHT22;16845;48.670;9.000;2023-04-23T02:32:43;12.00;99.90
30001;DHT22;16845;48.670;9.000;2023-04-23T02:35:10;11.90;99.90
30001;DHT22;16845;48.670;9.000;2023-04-23T02:37:37;11.80;99.90
30001;DHT22;16845;48.670;9.000;2023-04-23T02:40:05;11.80;99.90
30001;DHT22;16845;48.670;9.000;2023-04-23T02:42:32;11.70;99.90
30001;DHT22;16845;48.670;9.000;2023-04-23T02:44:59;11.60;99.90
30001;DHT22;16845;48.670;9.000;2023-04-23T02:47:26;11.50;99.90
30001;DHT22;16845;48.670;9.000;2023-04-23T02:49:54;11.50;99.90
30001;DHT22;16845;48.670;9.000;2023-04-23T02:52:21;11.50;99.90
30001;DHT22;16845;48.670;9.000;2023-04-23T02:54:47;11.50;99.90
30001;DHT22;16845;48.670;9.000;2023-04-23T02:57:14;11.40;99.90
30001;DHT22;16845;48.670;9.000;2023-04-23T02:59:41;11.40;99.90
30001;DHT22;16845;48.670;9.000;2023-04-23T03:02:08;11.30;99.90
30001;DHT22;16845;48.670;9.000;2023-04-23T03:04:34;11.40;99.90
30001;DHT22;16845;48.670;9.000;2023-04-23T03:07:02;11.40;99.90
30001;DHT22;16845;48.670;9.000;2023-04-23T03:09:29;11.40;99.90
30001;DHT22;16845;48.670;9.000;2023-04-23T03:11:56;11.30;99.90
30001;DHT22;16845;48.670;9.000;2023-04-23T03:14:23;11.30;99.90
30001;DHT22;16845;48.670;9.000;2023-04-23T03:16:49;11.20;99.90
30001;DHT22;16845;48.670;9.000;2023-04-23T03:19:16;11.20;99.90
30001;DHT22;16845;48.670;9.000;2023-04-23T03:21:43;11.30;99.90
30001;DHT22;16845;48.670;9.000;2023-04-23T03:24:12;11.30;99.90
30001;DHT22;16845;48.670;9.000;2023-04-23T03:26:38;11.30;99.90
30001;DHT22;16845;48.670;9.000;2023-04-23T03:29:05;11.20;99.90
30001;DHT22;16845;48.670;9.000;2023-04-23T03:31:32;11.10;99.90
30001;DHT22;16845;48.670;9.000;2023-04-23T03:33:59;11.20;99.90
30001;DHT22;16845;48.670;9.000;2023-04-23T03:36:25;11.10;99.90
30001;DHT22;16845;48.670;9.000;2023-04-23T03:38:52;11.10;99.90
30001;DHT22;16845;48.670;9.000;2023-04-23T03:41:20;11.00;99.90
30001;DHT22;16845;48.670;9.000;2023-04-23T03:43:47;11.00;99.90
30001;DHT22;16845;48.670;9.000;2023-04-23T03:46:14;11.10;99.90
30001;DHT22;16845;48.670;9.000;2023-04-23T03:48:41;11.10;99.90
30001;DHT22;16845;48.670;9.000;2023-04-23T03:51:07;11.10;99.90
30001;DHT22;16845;48.670;9.000;2023-04-23T03:53:34;11.20;99.90
30001;DHT22;16845;48.670;9.000;2023-04-23T03:56:01;11.10;99.90
30001;DHT22;16845;48.670;9.000;2023-04-23T03:58:29;11.10;99.90
30001;DHT22;16845;48.670;9.000;2023-04-23T04:00:56;11.20;99.90
30001;DHT22;16845;48.670;9.000;2023-04-23T04:03:22;11.20;99.90
30001;DHT22;16845;48.670;9.000;2023-04-23T04:05:50;11.20;99.90
30001;DHT22;16845;48.670;9.000;2023-04-23T04:08:17;11.30;99.90
30001;DHT22;16845;48.670;9.000;2023-04-23T04:10:43;11.30;99.90
30001;DHT22;16845;48.670;9.000;2023-04-23T04:13:10;11.20;99.90
30001;DHT22;16845;48.670;9.000;2023-04-23T04:15:38;11.20;99.90
30001;DHT22;16845;48.670;9.000;2023-04-23T04:18:05;11.30;99.90
30001;DHT22;16845;48.670;9.000;2023-04-23T04:20:32;11.30;99.90
30001;DHT22;16845;48.670;9.000;2023-04-23T04:22:58;11.20;99.90
30001;DHT22;16845;48.670;9.000;2023-04-23T04:25:25;11.20;99.90
30001;DHT22;16845;48.670;9.000;2023-04-23T04:27:52;11.20;99.90
30001;DHT22;16845;48.670;9.000;2023-04-23T04:30:18;11.20;99.90
30001;DHT22;16845;48.670;9.000;2023-04-23T04:32:47;11.20;99.90
30001;DHT22;16845;48.670;9.000;2023-04-23T04:35:13;11.10;99.90
30001;DHT22;16845;48.670;9.000;2023-04-23T04:37:40;11.00;99.90
30001;DHT22;16845;48.670;9.000;2023-04-23T04:40:08;11.00;99.90
30001;DHT22;16845;48.670;9.000;2023-04-23T04:42:34;11.10;99.90
30001;DHT22;16845;48.670;9.000;2023-04-23T04:45:01;11.10;99.90
30001;DHT22;16845;48.670;9.000;2023-04-23T04:47:28;11.10;99.90
30001;DHT22;16845;48.670;9.000;2023-04-23T04:49:56;11.00;99.90
30001;DHT22;16845;48.670;9.000;2023-04-23T04:52:23;11.10;99.90
30001;DHT22;16845;48.670;9.000;2023-04-23T04:54:50;11.00;99.90
30001;DHT22;16845;48.670;9.000;2023-04-23T04:57:16;11.10;99.90
30001;DHT22;16845;48.670;9.000;2023-04-23T04:59:44;11.20;99.90
30001;DHT22;16845;48.670;9.000;2023-04-23T05:02:10;11.20;99.90
30001;DHT22;16845;48.670;9.000;2023-04-23T05:04:37;11.20;99.90
30001;DHT22;16845;48.670;9.000;2023-04-23T05:07:05;11.20;99.90
30001;DHT22;16845;48.670;9.000;2023-04-23T05:09:32;11.30;99.90
30001;DHT22;16845;48.670;9.000;2023-04-23T05:11:59;11.40;99.90
30001;DHT22;16845;48.670;9.000;2023-04-23T05:14:26;11.40;99.90
30001;DHT22;16845;48.670;9.000;2023-04-23T05:16:52;11.50;99.90
30001;DHT22;16845;48.670;9.000;2023-04-23T05:19:19;11.50;99.90
30001;DHT22;16845;48.670;9.000;2023-04-23T05:21:46;11.50;99.90
30001;DHT22;16845;48.670;9.000;2023-04-23T05:24:14;11.60;99.90
30001;DHT22;16845;48.670;9.000;2023-04-23T05:26:41;11.70;99.90
30001;DHT22;16845;48.670;9.000;2023-04-23T05:29:07;11.90;99.90
30001;DHT22;16845;48.670;9.000;2023-04-23T05:31:34;11.80;99.90
30001;DHT22;16845;48.670;9.000;2023-04-23T05:34:01;11.80;99.90
30001;DHT22;16845;48.670;9.000;2023-04-23T05:36:28;11.80;99.90
30001;DHT22;16845;48.670;9.000;2023-04-23T05:38:54;11.80;99.90
30001;DHT22;16845;48.670;9.000;2023-04-23T05:41:22;11.90;99.90
30001;DHT22;16845;48.670;9.000;2023-04-23T05:43:49;11.90;99.90
30001;DHT22;16845;48.670;9.000;2023-04-23T05:46:16;11.90;99.90
30001;DHT22;16845;48.670;9.000;2023-04-23T05:48:43;11.80;99.90
30001;DHT22;16845;48.670;9.000;2023-04-23T05:51:10;11.80;99.90
30001;DHT22;16845;48.670;9.000;2023-04-23T05:53:36;11.80;99.90
30001;DHT22;16845;48.670;9.000;2023-04-23T05:56:03;11.80;99.90
30001;DHT22;16845;48.670;9.000;2023-04-23T05:58:32;11.90;99.90
30001;DHT22;16845;48.670;9.000;2023-04-23T06:00:58;12.10;99.90
30001;DHT22;16845;48.670;9.000;2023-04-23T06:03:30;12.20;99.90
30001;DHT22;16845;48.670;9.000;2023-04-23T06:05:57;12.40;99.90
30001;DHT22;16845;48.670;9.000;2023-04-23T06:08:24;12.50;99.90
30001;DHT22;16845;48.670;9.000;2023-04-23T06:10:51;12.40;99.90
30001;DHT22;16845;48.670;9.000;2023-04-23T06:13:18;12.40;99.90
30001;DHT22;16845;48.670;9.000;2023-04-23T06:15:46;12.50;99.90
30001;DHT22;16845;48.670;9.000;2023-04-23T06:18:12;12.50;99.90
30001;DHT22;16845;48.670;9.000;2023-04-23T06:20:39;12.50;99.90
30001;DHT22;16845;48.670;9.000;2023-04-23T06:23:06;12.60;99.90
30001;DHT22;16845;48.670;9.000;2023-04-23T06:25:33;12.70;99.90
30001;DHT22;16845;48.670;9.000;2023-04-23T06:27:59;12.80;99.90
30001;DHT22;16845;48.670;9.000;2023-04-23T06:30:26;12.90;99.90
30001;DHT22;16845;48.670;9.000;2023-04-23T06:32:54;12.90;99.90
30001;DHT22;16845;48.670;9.000;2023-04-23T06:35:21;13.00;99.90
30001;DHT22;16845;48.670;9.000;2023-04-23T06:37:48;13.20;99.90
30001;DHT22;16845;48.670;9.000;2023-04-23T06:40:15;13.30;99.90
30001;DHT22;16845;48.670;9.000;2023-04-23T06:42:41;13.50;99.90
30001;DHT22;16845;48.670;9.000;2023-04-23T06:45:09;13.70;99.90
30001;DHT22;16845;48.670;9.000;2023-04-23T06:47:36;13.80;99.90
30001;DHT22;16845;48.670;9.000;2023-04-23T06:50:06;14.20;99.90
30001;DHT22;16845;48.670;9.000;2023-04-23T06:52:33;14.60;99.90
30001;DHT22;16845;48.670;9.000;2023-04-23T06:54:59;14.80;99.90
30001;DHT22;16845;48.670;9.000;2023-04-23T06:57:27;14.50;99.90
30001;DHT22;16845;48.670;9.000;2023-04-23T06:59:54;14.30;99.90
30001;DHT22;16845;48.670;9.000;2023-04-23T07:02:20;14.00;99.90
30001;DHT22;16845;48.670;9.000;2023-04-23T07:04:47;13.90;99.90
30001;DHT22;16845;48.670;9.000;2023-04-23T07:07:18;13.70;99.90
30001;DHT22;16845;48.670;9.000;2023-04-23T07:10:00;13.70;99.90
30001;DHT22;16845;48.670;9.000;2023-04-23T07:12:27;14.10;99.90
30001;DHT22;16845;48.670;9.000;2023-04-23T07:14:53;14.60;99.90
30001;DHT22;16845;48.670;9.000;2023-04-23T07:17:20;15.00;99.90
30001;DHT22;16845;48.670;9.000;2023-04-23T07:19:47;15.20;99.90
30001;DHT22;16845;48.670;9.000;2023-04-23T07:22:15;15.50;99.90
30001;DHT22;16845;48.670;9.000;2023-04-23T07:24:42;15.50;99.90
30001;DHT22;16845;48.670;9.000;2023-04-23T07:27:09;15.50;99.90
30001;DHT22;16845;48.670;9.000;2023-04-23T07:29:36;15.60;99.90
30001;DHT22;16845;48.670;9.000;2023-04-23T07:32:03;16.00;99.90
30001;DHT22;16845;48.670;9.000;2023-04-23T07:34:29;16.00;99.90
30001;DHT22;16845;48.670;9.000;2023-04-23T07:36:56;16.30;99.90
30001;DHT22;16845;48.670;9.000;2023-04-23T07:39:24;16.70;99.90
30001;DHT22;16845;48.670;9.000;2023-04-23T07:41:51;17.10;99.90
30001;DHT22;16845;48.670;9.000;2023-04-23T07:44:18;17.20;99.90
30001;DHT22;16845;48.670;9.000;2023-04-23T07:46:45;17.10;99.90
30001;DHT22;16845;48.670;9.000;2023-04-23T07:49:11;17.30;99.90
30001;DHT22;16845;48.670;9.000;2023-04-23T07:51:38;18.10;99.90
30001;DHT22;16845;48.670;9.000;2023-04-23T07:54:05;18.70;99.90
30001;DHT22;16845;48.670;9.000;2023-04-23T07:56:33;18.30;99.90
30001;DHT22;16845;48.670;9.000;2023-04-23T07:59:00;18.00;99.90
30001;DHT22;16845;48.670;9.000;2023-04-23T08:01:27;18.00;99.90
30001;DHT22;16845;48.670;9.000;2023-04-23T08:03:57;17.80;99.90
30001;DHT22;16845;48.670;9.000;2023-04-23T08:06:25;17.70;99.90
30001;DHT22;16845;48.670;9.000;2023-04-23T08:08:52;17.40;99.90
30001;DHT22;16845;48.670;9.000;2023-04-23T08:11:19;16.90;99.90
30001;DHT22;16845;48.670;9.000;2023-04-23T08:13:47;16.60;99.90
30001;DHT22;16845;48.670;9.000;2023-04-23T08:16:14;16.20;99.90
30001;DHT22;16845;48.670;9.000;2023-04-23T08:18:41;16.00;99.90
30001;DHT22;16845;48.670;9.000;2023-04-23T08:21:07;15.90;99.90
30001;DHT22;16845;48.670;9.000;2023-04-23T08:23:34;16.00;99.90
30001;DHT22;16845;48.670;9.000;2023-04-23T08:26:01;16.10;99.90
30001;DHT22;16845;48.670;9.000;2023-04-23T08:28:27;15.90;99.90
30001;DHT22;16845;48.670;9.000;2023-04-23T08:30:55;15.80;99.90
30001;DHT22;16845;48.670;9.000;2023-04-23T08:33:22;16.00;99.90
30001;DHT22;16845;48.670;9.000;2023-04-23T08:35:49;16.40;99.90
30001;DHT22;16845;48.670;9.000;2023-04-23T08:38:16;16.70;99.90
30001;DHT22;16845;48.670;9.000;2023-04-23T08:40:44;17.00;99.90
30001;DHT22;16845;48.670;9.000;2023-04-23T08:43:15;17.00;99.90
30001;DHT22;16845;48.670;9.000;2023-04-23T08:45:46;17.40;99.90
30001;DHT22;16845;48.670;9.000;2023-04-23T08:48:14;17.40;99.90
30001;DHT22;16845;48.670;9.000;2023-04-23T08:50:42;17.10;99.90
30001;DHT22;16845;48.670;9.000;2023-04-23T08:53:09;16.70;99.90
30001;DHT22;16845;48.670;9.000;2023-04-23T08:55:36;16.30;99.90
30001;DHT22;16845;48.670;9.000;2023-04-23T08:58:04;16.10;99.90
30001;DHT22;16845;48.670;9.000;2023-04-23T09:00:32;16.20;99.90
30001;DHT22;16845;48.670;9.000;2023-04-23T09:02:58;16.70;99.90
30001;DHT22;16845;48.670;9.000;2023-04-23T09:05:27;16.90;99.90
30001;DHT22;16845;48.670;9.000;2023-04-23T09:07:54;16.90;99.90
30001;DHT22;16845;48.670;9.000;2023-04-23T09:10:22;16.60;99.90
30001;DHT22;16845;48.670;9.000;2023-04-23T09:12:48;16.50;99.90
30001;DHT22;16845;48.670;9.000;2023-04-23T09:15:16;17.10;99.90
30001;DHT22;16845;48.670;9.000;2023-04-23T09:17:44;17.90;99.90
30001;DHT22;16845;48.670;9.000;2023-04-23T09:20:12;18.20;99.90
30001;DHT22;16845;48.670;9.000;2023-04-23T09:22:42;18.50;99.90
30001;DHT22;16845;48.670;9.000;2023-04-23T09:25:14;18.90;99.90
30001;DHT22;16845;48.670;9.000;2023-04-23T09:27:41;19.80;99.90
30001;DHT22;16845;48.670;9.000;2023-04-23T09:30:09;20.80;99.90
30001;DHT22;16845;48.670;9.000;2023-04-23T09:32:38;21.90;99.90
30001;DHT22;16845;48.670;9.000;2023-04-23T09:35:06;23.10;99.90
30001;DHT22;16845;48.670;9.000;2023-04-23T09:37:34;24.00;97.40
30001;DHT22;16845;48.670;9.000;2023-04-23T09:40:04;24.40;95.50
30001;DHT22;16845;48.670;9.000;2023-04-23T09:42:32;24.90;94.50
30001;DHT22;16845;48.670;9.000;2023-04-23T09:44:59;25.10;93.00
30001;DHT22;16845;48.670;9.000;2023-04-23T09:47:26;25.40;92.50
30001;DHT22;16845;48.670;9.000;2023-04-23T09:49:52;25.40;90.50
30001;DHT22;16845;48.670;9.000;2023-04-23T09:52:19;24.90;92.50
30001;DHT22;16845;48.670;9.000;2023-04-23T09:54:46;25.40;90.10
30001;DHT22;16845;48.670;9.000;2023-04-23T09:57:15;25.70;90.80
30001;DHT22;16845;48.670;9.000;2023-04-23T09:59:43;25.80;89.60
30001;DHT22;16845;48.670;9.000;2023-04-23T10:02:17;25.50;87.60
30001;DHT22;16845;48.670;9.000;2023-04-23T10:04:43;25.70;84.00
30001;DHT22;16845;48.670;9.000;2023-04-23T10:07:10;25.70;82.70
30001;DHT22;16845;48.670;9.000;2023-04-23T10:09:40;25.40;87.60
30001;DHT22;16845;48.670;9.000;2023-04-23T10:12:08;24.80;83.30
30001;DHT22;16845;48.670;9.000;2023-04-23T10:14:57;24.00;85.70
30001;DHT22;16845;48.670;9.000;2023-04-23T10:17:24;23.00;85.80
30001;DHT22;16845;48.670;9.000;2023-04-23T10:19:51;22.50;86.80
30001;DHT22;16845;48.670;9.000;2023-04-23T10:22:19;22.70;89.30
30001;DHT22;16845;48.670;9.000;2023-04-23T10:24:52;23.10;90.30
30001;DHT22;16845;48.670;9.000;2023-04-23T10:27:20;23.80;88.30
30001;DHT22;16845;48.670;9.000;2023-04-23T10:30:08;23.80;87.40
30001;DHT22;16845;48.670;9.000;2023-04-23T10:32:36;23.80;89.50
30001;DHT22;16845;48.670;9.000;2023-04-23T10:35:04;24.10;86.90
30001;DHT22;16845;48.670;9.000;2023-04-23T10:37:31;24.00;87.40
30001;DHT22;16845;48.670;9.000;2023-04-23T10:40:05;23.30;87.50
30001;DHT22;16845;48.670;9.000;2023-04-23T10:42:32;22.50;88.80
30001;DHT22;16845;48.670;9.000;2023-04-23T10:44:59;22.20;90.60
30001;DHT22;16845;48.670;9.000;2023-04-23T10:47:41;21.80;90.40
30001;DHT22;16845;48.670;9.000;2023-04-23T10:50:18;20.80;91.80
30001;DHT22;16845;48.670;9.000;2023-04-23T10:52:45;20.60;93.00
30001;DHT22;16845;48.670;9.000;2023-04-23T10:55:16;21.90;91.40
30001;DHT22;16845;48.670;9.000;2023-04-23T10:58:01;23.70;93.00
30001;DHT22;16845;48.670;9.000;2023-04-23T11:00:41;25.30;89.50
30001;DHT22;16845;48.670;9.000;2023-04-23T11:03:32;26.50;84.80
30001;DHT22;16845;48.670;9.000;2023-04-23T11:06:07;27.40;81.80
30001;DHT22;16845;48.670;9.000;2023-04-23T11:08:34;27.50;79.80
30001;DHT22;16845;48.670;9.000;2023-04-23T11:11:06;26.80;79.20
30001;DHT22;16845;48.670;9.000;2023-04-23T11:13:33;26.50;79.30
30001;DHT22;16845;48.670;9.000;2023-04-23T11:16:13;26.40;79.00
30001;DHT22;16845;48.670;9.000;2023-04-23T11:19:00;25.20;79.00
30001;DHT22;16845;48.670;9.000;2023-04-23T11:21:58;24.40;81.50
30001;DHT22;16845;48.670;9.000;2023-04-23T11:24:30;24.40;86.70
30001;DHT22;16845;48.670;9.000;2023-04-23T11:26:57;23.80;83.80
30001;DHT22;16845;48.670;9.000;2023-04-23T11:29:25;23.40;85.80
30001;DHT22;16845;48.670;9.000;2023-04-23T11:31:53;22.90;86.10
30001;DHT22;16845;48.670;9.000;2023-04-23T11:34:31;23.60;84.90
30001;DHT22;16845;48.670;9.000;2023-04-23T11:36:59;23.90;85.70
30001;DHT22;16845;48.670;9.000;2023-04-23T11:39:25;23.10;85.40
30001;DHT22;16845;48.670;9.000;2023-04-23T11:41:52;23.30;85.20
30001;DHT22;16845;48.670;9.000;2023-04-23T11:44:20;23.30;83.80
30001;DHT22;16845;48.670;9.000;2023-04-23T11:46:47;23.40;87.80
30001;DHT22;16845;48.670;9.000;2023-04-23T11:49:15;23.00;86.30
30001;DHT22;16845;48.670;9.000;2023-04-23T11:51:43;23.90;88.30
30001;DHT22;16845;48.670;9.000;2023-04-23T11:54:10;25.50;87.30
30001;DHT22;16845;48.670;9.000;2023-04-23T11:56:38;25.80;80.00
30001;DHT22;16845;48.670;9.000;2023-04-23T11:59:04;25.70;80.60
30001;DHT22;16845;48.670;9.000;2023-04-23T12:01:41;25.90;79.90
30001;DHT22;16845;48.670;9.000;2023-04-23T12:04:09;25.40;82.00
30001;DHT22;16845;48.670;9.000;2023-04-23T12:06:37;25.10;81.30
30001;DHT22;16845;48.670;9.000;2023-04-23T12:09:05;23.70;82.70
30001;DHT22;16845;48.670;9.000;2023-04-23T12:11:33;22.80;83.30
30001;DHT22;16845;48.670;9.000;2023-04-23T12:14:00;22.30;87.20
30001;DHT22;16845;48.670;9.000;2023-04-23T12:16:38;21.80;89.20
30001;DHT22;16845;48.670;9.000;2023-04-23T12:19:11;21.60;89.20
30001;DHT22;16845;48.670;9.000;2023-04-23T12:21:49;22.10;88.10
30001;DHT22;16845;48.670;9.000;2023-04-23T12:24:17;23.70;83.80
30001;DHT22;16845;48.670;9.000;2023-04-23T12:26:44;24.70;82.00
30001;DHT22;16845;48.670;9.000;2023-04-23T12:29:17;26.00;81.60
30001;DHT22;16845;48.670;9.000;2023-04-23T12:31:44;28.10;78.90
30001;DHT22;16845;48.670;9.000;2023-04-23T12:34:13;29.50;76.90
30001;DHT22;16845;48.670;9.000;2023-04-23T12:36:43;29.60;74.30
30001;DHT22;16845;48.670;9.000;2023-04-23T12:39:23;29.80;72.60
30001;DHT22;16845;48.670;9.000;2023-04-23T12:41:51;31.20;71.90
30001;DHT22;16845;48.670;9.000;2023-04-23T12:44:19;31.20;71.70
30001;DHT22;16845;48.670;9.000;2023-04-23T12:46:49;32.10;68.60
30001;DHT22;16845;48.670;9.000;2023-04-23T12:49:22;32.20;68.90
30001;DHT22;16845;48.670;9.000;2023-04-23T12:51:49;30.30;66.50
30001;DHT22;16845;48.670;9.000;2023-04-23T12:54:16;30.30;67.50
30001;DHT22;16845;48.670;9.000;2023-04-23T12:56:44;28.80;66.00
30001;DHT22;16845;48.670;9.000;2023-04-23T12:59:10;27.70;70.90
30001;DHT22;16845;48.670;9.000;2023-04-23T13:01:37;27.80;69.90
30001;DHT22;16845;48.670;9.000;2023-04-23T13:04:04;28.10;70.00
30001;DHT22;16845;48.670;9.000;2023-04-23T13:06:31;28.10;67.10
30001;DHT22;16845;48.670;9.000;2023-04-23T13:08:58;28.70;69.20
30001;DHT22;16845;48.670;9.000;2023-04-23T13:11:24;29.40;67.10
30001;DHT22;16845;48.670;9.000;2023-04-23T13:13:53;30.30;68.90
30001;DHT22;16845;48.670;9.000;2023-04-23T13:16:20;31.40;69.80
30001;DHT22;16845;48.670;9.000;2023-04-23T13:18:46;32.50;64.30
30001;DHT22;16845;48.670;9.000;2023-04-23T13:21:13;32.50;59.60
30001;DHT22;16845;48.670;9.000;2023-04-23T13:23:40;31.20;60.70
30001;DHT22;16845;48.670;9.000;2023-04-23T13:26:07;30.50;65.60
30001;DHT22;16845;48.670;9.000;2023-04-23T13:28:34;30.10;62.90
30001;DHT22;16845;48.670;9.000;2023-04-23T13:31:02;28.60;62.40
30001;DHT22;16845;48.670;9.000;2023-04-23T13:33:29;26.50;66.80
30001;DHT22;16845;48.670;9.000;2023-04-23T13:35:56;25.00;68.30
30001;DHT22;16845;48.670;9.000;2023-04-23T13:38:23;24.60;70.10
30001;DHT22;16845;48.670;9.000;2023-04-23T13:40:50;25.40;66.90
30001;DHT22;16845;48.670;9.000;2023-04-23T13:43:17;25.10;65.90
30001;DHT22;16845;48.670;9.000;2023-04-23T13:45:44;25.20;68.30
30001;DHT22;16845;48.670;9.000;2023-04-23T13:48:13;25.40;67.00
30001;DHT22;16845;48.670;9.000;2023-04-23T13:50:39;26.20;68.40
30001;DHT22;16845;48.670;9.000;2023-04-23T13:53:07;26.00;66.80
30001;DHT22;16845;48.670;9.000;2023-04-23T13:55:34;26.00;64.00
30001;DHT22;16845;48.670;9.000;2023-04-23T13:58:01;26.10;66.20
30001;DHT22;16845;48.670;9.000;2023-04-23T14:00:28;25.80;63.70
30001;DHT22;16845;48.670;9.000;2023-04-23T14:02:55;25.50;66.20
30001;DHT22;16845;48.670;9.000;2023-04-23T14:05:24;25.00;67.40
30001;DHT22;16845;48.670;9.000;2023-04-23T14:07:50;24.20;66.30
30001;DHT22;16845;48.670;9.000;2023-04-23T14:10:17;23.30;69.60
30001;DHT22;16845;48.670;9.000;2023-04-23T14:12:44;23.00;69.00
30001;DHT22;16845;48.670;9.000;2023-04-23T14:15:11;23.30;69.40
30001;DHT22;16845;48.670;9.000;2023-04-23T14:17:39;23.60;70.30
30001;DHT22;16845;48.670;9.000;2023-04-23T14:20:06;23.80;68.50
30001;DHT22;16845;48.670;9.000;2023-04-23T14:22:34;23.80;69.20
30001;DHT22;16845;48.670;9.000;2023-04-23T14:25:02;23.70;71.30
30001;DHT22;16845;48.670;9.000;2023-04-23T14:27:39;23.50;69.20
30001;DHT22;16845;48.670;9.000;2023-04-23T14:30:13;22.50;70.40
30001;DHT22;16845;48.670;9.000;2023-04-23T14:32:40;21.70;70.60
30001;DHT22;16845;48.670;9.000;2023-04-23T14:35:08;21.00;75.10
30001;DHT22;16845;48.670;9.000;2023-04-23T14:37:36;20.60;74.70
30001;DHT22;16845;48.670;9.000;2023-04-23T14:40:03;20.30;78.30
30001;DHT22;16845;48.670;9.000;2023-04-23T14:42:30;19.80;82.40
30001;DHT22;16845;48.670;9.000;2023-04-23T14:44:57;19.30;92.90
30001;DHT22;16845;48.670;9.000;2023-04-23T14:47:24;18.80;94.50
30001;DHT22;16845;48.670;9.000;2023-04-23T14:49:51;18.40;92.80
30001;DHT22;16845;48.670;9.000;2023-04-23T14:52:18;18.10;94.10
30001;DHT22;16845;48.670;9.000;2023-04-23T14:54:46;18.00;93.60
30001;DHT22;16845;48.670;9.000;2023-04-23T14:57:13;17.90;92.80
30001;DHT22;16845;48.670;9.000;2023-04-23T14:59:40;17.80;92.50
30001;DHT22;16845;48.670;9.000;2023-04-23T15:02:07;17.60;93.80
30001;DHT22;16845;48.670;9.000;2023-04-23T15:04:34;17.50;93.70
30001;DHT22;16845;48.670;9.000;2023-04-23T15:07:01;17.40;95.00
30001;DHT22;16845;48.670;9.000;2023-04-23T15:09:28;17.30;94.70
30001;DHT22;16845;48.670;9.000;2023-04-23T15:11:56;17.30;93.50
30001;DHT22;16845;48.670;9.000;2023-04-23T15:14:25;17.10;97.00
30001;DHT22;16845;48.670;9.000;2023-04-23T15:16:56;16.70;99.40
30001;DHT22;16845;48.670;9.000;2023-04-23T15:19:22;16.40;99.90
30001;DHT22;16845;48.670;9.000;2023-04-23T15:21:49;16.10;99.90
30001;DHT22;16845;48.670;9.000;2023-04-23T15:24:16;15.70;99.90
30001;DHT22;16845;48.670;9.000;2023-04-23T15:26:43;14.70;99.90
30001;DHT22;16845;48.670;9.000;2023-04-23T15:29:11;14.00;99.90
30001;DHT22;16845;48.670;9.000;2023-04-23T15:31:38;13.70;99.90
30001;DHT22;16845;48.670;9.000;2023-04-23T15:34:05;13.60;99.90